sensor_id;sensor_type;location;lat;lon;timestamp;temperature;humidity
6843;DHT22;3460;52.028;8.916;2023-03-14T00:00:51;12.30;2.20
6843;DHT22;3460;52.028;8.916;2023-03-14T00:03:18;12.30;9.90
6843;DHT22;3460;52.028;8.916;2023-03-14T00:05:45;12.20;12.30
6843;DHT22;3460;52.028;8.916;2023-03-14T00:08:12;12.10;17.00
6843;DHT22;3460;52.028;8.916;2023-03-14T00:10:39;12.10;19.80
6843;DHT22;3460;52.028;8.916;2023-03-14T00:13:06;12.10;27.20
6843;DHT22;3460;52.028;8.916;2023-03-14T00:15:33;12.10;49.60
6843;DHT22;3460;52.028;8.916;2023-03-14T00:18:02;12.00;32.80
6843;DHT22;3460;52.028;8.916;2023-03-14T00:20:29;12.00;25.30
6843;DHT22;3460;52.028;8.916;2023-03-14T00:22:56;12.00;17.90
6843;DHT22;3460;52.028;8.916;2023-03-14T00:25:22;12.00;77.30
6843;DHT22;3460;52.028;8.916;2023-03-14T00:27:50;12.10;7.70
6843;DHT22;3460;52.028;8.916;2023-03-14T00:30:17;12.10;29.50
6843;DHT22;3460;52.028;8.916;2023-03-14T00:32:44;12.10;15.60
6843;DHT22;3460;52.028;8.916;2023-03-14T00:35:12;12.10;33.90
6843;DHT22;3460;52.028;8.916;2023-03-14T00:37:39;12.10;6.80
6843;DHT22;3460;52.028;8.916;2023-03-14T00:40:08;12.10;20.80
6843;DHT22;3460;52.028;8.916;2023-03-14T00:42:35;12.10;14.00
6843;DHT22;3460;52.028;8.916;2023-03-14T00:45:02;12.20;10.50
6843;DHT22;3460;52.028;8.916;2023-03-14T00:47:29;12.10;8.90
6843;DHT22;3460;52.028;8.916;2023-03-14T00:49:56;12.10;4.30
6843;DHT22;3460;52.028;8.916;2023-03-14T00:52:25;12.10;42.20
6843;DHT22;3460;52.028;8.916;2023-03-14T00:54:52;12.10;10.30
6843;DHT22;3460;52.028;8.916;2023-03-14T00:57:18;12.10;26.90
6843;DHT22;3460;52.028;8.916;2023-03-14T00:59:45;12.00;18.60
6843;DHT22;3460;52.028;8.916;2023-03-14T01:02:12;11.90;40.60
6843;DHT22;3460;52.028;8.916;2023-03-14T01:04:39;11.80;9.90
6843;DHT22;3460;52.028;8.916;2023-03-14T01:07:08;11.80;21.90
6843;DHT22;3460;52.028;8.916;2023-03-14T01:09:36;11.70;20.30
6843;DHT22;3460;52.028;8.916;2023-03-14T01:12:04;11.70;21.50
6843;DHT22;3460;52.028;8.916;2023-03-14T01:14:31;11.70;26.10
6843;DHT22;3460;52.028;8.916;2023-03-14T01:16:58;11.70;29.30
6843;DHT22;3460;52.028;8.916;2023-03-14T01:19:26;11.80;35.70
6843;DHT22;3460;52.028;8.916;2023-03-14T01:21:53;11.80;35.60
6843;DHT22;3460;52.028;8.916;2023-03-14T01:24:20;11.90;26.20
6843;DHT22;3460;52.028;8.916;2023-03-14T01:26:49;11.90;23.90
6843;DHT22;3460;52.028;8.916;2023-03-14T01:29:15;11.90;30.30
6843;DHT22;3460;52.028;8.916;2023-03-14T01:31:42;11.90;19.40
6843;DHT22;3460;52.028;8.916;2023-03-14T01:34:09;11.90;24.30
6843;DHT22;3460;52.028;8.916;2023-03-14T01:36:36;11.90;8.60
6843;DHT22;3460;52.028;8.916;2023-03-14T01:39:03;11.90;40.90
6843;DHT22;3460;52.028;8.916;2023-03-14T01:41:32;11.90;2.70
6843;DHT22;3460;52.028;8.916;2023-03-14T01:44:00;11.90;5.70
6843;DHT22;3460;52.028;8.916;2023-03-14T01:46:38;11.90;4.20
6843;DHT22;3460;52.028;8.916;2023-03-14T01:49:13;11.90;1.00
6843;DHT22;3460;52.028;8.916;2023-03-14T01:51:45;11.90;4.20
6843;DHT22;3460;52.028;8.916;2023-03-14T01:54:17;11.90;5.10
6843;DHT22;3460;52.028;8.916;2023-03-14T01:56:48;11.90;1.00
6843;DHT22;3460;52.028;8.916;2023-03-14T01:59:17;11.80;7.40
6843;DHT22;3460;52.028;8.916;2023-03-14T02:01:46;11.80;25.10
6843;DHT22;3460;52.028;8.916;2023-03-14T02:04:14;11.80;27.50
6843;DHT22;3460;52.028;8.916;2023-03-14T02:06:51;11.80;24.10
6843;DHT22;3460;52.028;8.916;2023-03-14T02:09:20;11.80;2.40
6843;DHT22;3460;52.028;8.916;2023-03-14T02:11:47;11.70;6.40
6843;DHT22;3460;52.028;8.916;2023-03-14T02:14:25;11.80;1.40
6843;DHT22;3460;52.028;8.916;2023-03-14T02:16:55;11.80;1.70
6843;DHT22;3460;52.028;8.916;2023-03-14T02:19:30;11.80;23.70
6843;DHT22;3460;52.028;8.916;2023-03-14T02:22:05;11.80;1.00
6843;DHT22;3460;52.028;8.916;2023-03-14T02:24:40;11.70;7.90
6843;DHT22;3460;52.028;8.916;2023-03-14T02:27:13;11.80;24.60
6843;DHT22;3460;52.028;8.916;2023-03-14T02:29:45;11.70;3.50
6843;DHT22;3460;52.028;8.916;2023-03-14T02:32:15;11.80;1.00
6843;DHT22;3460;52.028;8.916;2023-03-14T02:34:45;11.70;9.10
6843;DHT22;3460;52.028;8.916;2023-03-14T02:37:13;11.70;8.70
6843;DHT22;3460;52.028;8.916;2023-03-14T02:39:43;11.70;23.70
6843;DHT22;3460;52.028;8.916;2023-03-14T02:42:13;11.70;10.30
6843;DHT22;3460;52.028;8.916;2023-03-14T02:44:49;11.70;3.40
6843;DHT22;3460;52.028;8.916;2023-03-14T02:47:17;11.70;11.40
6843;DHT22;3460;52.028;8.916;2023-03-14T02:49:45;11.70;1.00
6843;DHT22;3460;52.028;8.916;2023-03-14T02:52:13;11.70;39.90
6843;DHT22;3460;52.028;8.916;2023-03-14T02:54:39;11.80;61.40
6843;DHT22;3460;52.028;8.916;2023-03-14T02:57:06;11.70;99.90
6843;DHT22;3460;52.028;8.916;2023-03-14T02:59:34;11.50;99.90
6843;DHT22;3460;52.028;8.916;2023-03-14T03:02:01;11.30;99.90
6843;DHT22;3460;52.028;8.916;2023-03-14T03:04:28;10.90;99.90
6843;DHT22;3460;52.028;8.916;2023-03-14T03:06:55;10.60;99.90
6843;DHT22;3460;52.028;8.916;2023-03-14T03:09:22;10.30;99.90
6843;DHT22;3460;52.028;8.916;2023-03-14T03:11:49;10.10;99.90
6843;DHT22;3460;52.028;8.916;2023-03-14T03:14:15;10.00;99.90
6843;DHT22;3460;52.028;8.916;2023-03-14T03:16:44;9.90;99.90
6843;DHT22;3460;52.028;8.916;2023-03-14T03:19:10;9.80;99.90
6843;DHT22;3460;52.028;8.916;2023-03-14T03:21:39;9.70;99.90
6843;DHT22;3460;52.028;8.916;2023-03-14T03:24:06;9.70;99.90
6843;DHT22;3460;52.028;8.916;2023-03-14T03:26:33;9.70;99.90
6843;DHT22;3460;52.028;8.916;2023-03-14T03:29:00;9.60;99.90
6843;DHT22;3460;52.028;8.916;2023-03-14T03:31:27;9.50;99.90
6843;DHT22;3460;52.028;8.916;2023-03-14T03:33:56;9.50;99.90
6843;DHT22;3460;52.028;8.916;2023-03-14T03:36:24;9.50;99.90
6843;DHT22;3460;52.028;8.916;2023-03-14T03:38:51;9.50;99.90
6843;DHT22;3460;52.028;8.916;2023-03-14T03:41:18;9.50;99.90
6843;DHT22;3460;52.028;8.916;2023-03-14T03:43:45;9.50;99.90
6843;DHT22;3460;52.028;8.916;2023-03-14T03:46:12;9.40;99.90
6843;DHT22;3460;52.028;8.916;2023-03-14T03:48:39;9.40;99.90
6843;DHT22;3460;52.028;8.916;2023-03-14T03:51:10;9.40;99.90
6843;DHT22;3460;52.028;8.916;2023-03-14T03:53:37;9.40;99.90
6843;DHT22;3460;52.028;8.916;2023-03-14T03:56:04;9.40;99.90
6843;DHT22;3460;52.028;8.916;2023-03-14T03:58:31;9.30;99.90
6843;DHT22;3460;52.028;8.916;2023-03-14T04:00:58;9.30;99.90
6843;DHT22;3460;52.028;8.916;2023-03-14T04:03:25;9.20;99.90
6843;DHT22;3460;52.028;8.916;2023-03-14T04:05:58;9.20;99.90
6843;DHT22;3460;52.028;8.916;2023-03-14T04:08:27;9.20;99.90
6843;DHT22;3460;52.028;8.916;2023-03-14T04:10:56;9.20;99.90
6843;DHT22;3460;52.028;8.916;2023-03-14T04:13:23;9.20;99.90
6843;DHT22;3460;52.028;8.916;2023-03-14T04:15:51;9.20;99.90
6843;DHT22;3460;52.028;8.916;2023-03-14T04:18:18;9.10;99.90
6843;DHT22;3460;52.028;8.916;2023-03-14T04:20:45;9.10;99.90
6843;DHT22;3460;52.028;8.916;2023-03-14T04:23:12;9.10;99.90
6843;DHT22;3460;52.028;8.916;2023-03-14T04:25:40;9.10;99.90
6843;DHT22;3460;52.028;8.916;2023-03-14T04:28:07;9.10;99.90
6843;DHT22;3460;52.028;8.916;2023-03-14T04:30:34;9.10;99.90
6843;DHT22;3460;52.028;8.916;2023-03-14T04:33:01;9.20;99.90
6843;DHT22;3460;52.028;8.916;2023-03-14T04:35:31;9.20;99.90
6843;DHT22;3460;52.028;8.916;2023-03-14T04:37:58;9.20;99.90
6843;DHT22;3460;52.028;8.916;2023-03-14T04:40:25;9.10;99.90
6843;DHT22;3460;52.028;8.916;2023-03-14T04:42:53;9.20;99.90
6843;DHT22;3460;52.028;8.916;2023-03-14T04:45:20;9.20;99.90
6843;DHT22;3460;52.028;8.916;2023-03-14T04:47:47;9.20;99.90
6843;DHT22;3460;52.028;8.916;2023-03-14T04:50:14;9.10;99.90
6843;DHT22;3460;52.028;8.916;2023-03-14T04:52:41;9.10;99.90
6843;DHT22;3460;52.028;8.916;2023-03-14T04:55:08;9.00;99.90
6843;DHT22;3460;52.028;8.916;2023-03-14T04:57:35;9.00;99.90
6843;DHT22;3460;52.028;8.916;2023-03-14T05:00:05;9.00;99.90
6843;DHT22;3460;52.028;8.916;2023-03-14T05:02:33;9.00;99.90
6843;DHT22;3460;52.028;8.916;2023-03-14T05:05:00;9.10;99.90
6843;DHT22;3460;52.028;8.916;2023-03-14T05:07:27;9.10;99.90
6843;DHT22;3460;52.028;8.916;2023-03-14T05:09:53;9.00;99.90
6843;DHT22;3460;52.028;8.916;2023-03-14T05:12:21;9.00;99.90
6843;DHT22;3460;52.028;8.916;2023-03-14T05:14:48;9.00;99.90
6843;DHT22;3460;52.028;8.916;2023-03-14T05:17:16;9.10;99.90
6843;DHT22;3460;52.028;8.916;2023-03-14T05:19:44;9.00;99.90
6843;DHT22;3460;52.028;8.916;2023-03-14T05:22:11;9.00;99.90
6843;DHT22;3460;52.028;8.916;2023-03-14T05:24:38;9.00;99.90
6843;DHT22;3460;52.028;8.916;2023-03-14T05:27:05;9.00;99.90
6843;DHT22;3460;52.028;8.916;2023-03-14T05:29:32;9.00;99.90
6843;DHT22;3460;52.028;8.916;2023-03-14T05:31:58;9.10;99.90
6843;DHT22;3460;52.028;8.916;2023-03-14T05:34:27;9.00;99.90
6843;DHT22;3460;52.028;8.916;2023-03-14T05:36:54;9.00;99.90
6843;DHT22;3460;52.028;8.916;2023-03-14T05:39:22;9.00;99.90
6843;DHT22;3460;52.028;8.916;2023-03-14T05:41:49;9.10;99.90
6843;DHT22;3460;52.028;8.916;2023-03-14T05:44:16;9.00;99.90
6843;DHT22;3460;52.028;8.916;2023-03-14T05:46:43;9.00;99.90
6843;DHT22;3460;52.028;8.916;2023-03-14T05:49:10;9.10;99.90
6843;DHT22;3460;52.028;8.916;2023-03-14T05:51:38;9.20;99.90
6843;DHT22;3460;52.028;8.916;2023-03-14T05:54:05;9.30;99.90
6843;DHT22;3460;52.028;8.916;2023-03-14T05:56:32;9.30;99.90
6843;DHT22;3460;52.028;8.916;2023-03-14T05:58:59;9.40;99.90
6843;DHT22;3460;52.028;8.916;2023-03-14T06:01:27;9.40;99.90
6843;DHT22;3460;52.028;8.916;2023-03-14T06:03:54;9.40;99.90
6843;DHT22;3460;52.028;8.916;2023-03-14T06:06:21;9.40;99.90
6843;DHT22;3460;52.028;8.916;2023-03-14T06:08:49;9.40;99.90
6843;DHT22;3460;52.028;8.916;2023-03-14T06:11:16;9.40;99.90
6843;DHT22;3460;52.028;8.916;2023-03-14T06:13:43;9.40;99.90
6843;DHT22;3460;52.028;8.916;2023-03-14T06:16:10;9.40;99.90
6843;DHT22;3460;52.028;8.916;2023-03-14T06:18:37;9.40;99.90
6843;DHT22;3460;52.028;8.916;2023-03-14T06:21:04;9.40;99.90
6843;DHT22;3460;52.028;8.916;2023-03-14T06:23:31;9.40;99.90
6843;DHT22;3460;52.028;8.916;2023-03-14T06:25:59;9.40;99.90
6843;DHT22;3460;52.028;8.916;2023-03-14T06:28:26;9.40;99.90
6843;DHT22;3460;52.028;8.916;2023-03-14T06:30:53;9.40;99.90
6843;DHT22;3460;52.028;8.916;2023-03-14T06:33:20;9.30;99.90
6843;DHT22;3460;52.028;8.916;2023-03-14T06:35:47;9.20;99.90
6843;DHT22;3460;52.028;8.916;2023-03-14T06:38:14;9.20;99.90
6843;DHT22;3460;52.028;8.916;2023-03-14T06:40:41;9.20;99.90
6843;DHT22;3460;52.028;8.916;2023-03-14T06:43:09;9.10;99.90
6843;DHT22;3460;52.028;8.916;2023-03-14T06:45:36;9.10;99.90
6843;DHT22;3460;52.028;8.916;2023-03-14T06:48:03;9.00;99.90
6843;DHT22;3460;52.028;8.916;2023-03-14T06:50:30;9.00;99.90
6843;DHT22;3460;52.028;8.916;2023-03-14T06:52:57;9.00;99.90
6843;DHT22;3460;52.028;8.916;2023-03-14T06:55:24;8.90;99.90
6843;DHT22;3460;52.028;8.916;2023-03-14T06:57:51;8.90;99.90
6843;DHT22;3460;52.028;8.916;2023-03-14T07:00:20;8.90;99.90
6843;DHT22;3460;52.028;8.916;2023-03-14T07:02:47;8.80;99.90
6843;DHT22;3460;52.028;8.916;2023-03-14T07:05:14;8.80;99.90
6843;DHT22;3460;52.028;8.916;2023-03-14T07:07:40;8.70;99.90
6843;DHT22;3460;52.028;8.916;2023-03-14T07:10:08;8.70;99.90
6843;DHT22;3460;52.028;8.916;2023-03-14T07:12:35;8.70;99.90
6843;DHT22;3460;52.028;8.916;2023-03-14T07:15:02;8.70;99.90
6843;DHT22;3460;52.028;8.916;2023-03-14T07:17:30;8.70;99.90
6843;DHT22;3460;52.028;8.916;2023-03-14T07:19:57;8.70;99.90
6843;DHT22;3460;52.028;8.916;2023-03-14T07:22:24;8.70;99.90
6843;DHT22;3460;52.028;8.916;2023-03-14T07:24:51;8.70;99.90
6843;DHT22;3460;52.028;8.916;2023-03-14T07:27:18;8.70;99.90
6843;DHT22;3460;52.028;8.916;2023-03-14T07:29:45;8.70;99.90
6843;DHT22;3460;52.028;8.916;2023-03-14T07:32:12;8.60;99.90
6843;DHT22;3460;52.028;8.916;2023-03-14T07:34:41;8.60;99.90
6843;DHT22;3460;52.028;8.916;2023-03-14T07:37:08;8.70;99.90
6843;DHT22;3460;52.028;8.916;2023-03-14T07:39:36;8.70;99.90
6843;DHT22;3460;52.028;8.916;2023-03-14T07:42:02;8.70;99.90
6843;DHT22;3460;52.028;8.916;2023-03-14T07:44:30;8.60;99.90
6843;DHT22;3460;52.028;8.916;2023-03-14T07:46:56;8.60;99.90
6843;DHT22;3460;52.028;8.916;2023-03-14T07:49:24;8.70;99.90
6843;DHT22;3460;52.028;8.916;2023-03-14T07:51:52;8.80;99.90
6843;DHT22;3460;52.028;8.916;2023-03-14T07:54:19;8.80;99.90
6843;DHT22;3460;52.028;8.916;2023-03-14T07:56:45;8.90;99.90
6843;DHT22;3460;52.028;8.916;2023-03-14T07:59:12;8.90;99.90
6843;DHT22;3460;52.028;8.916;2023-03-14T08:01:39;9.00;99.90
6843;DHT22;3460;52.028;8.916;2023-03-14T08:04:06;9.10;99.90
6843;DHT22;3460;52.028;8.916;2023-03-14T08:06:35;9.20;99.90
6843;DHT22;3460;52.028;8.916;2023-03-14T08:09:04;9.20;99.90
6843;DHT22;3460;52.028;8.916;2023-03-14T08:11:31;9.30;99.90
6843;DHT22;3460;52.028;8.916;2023-03-14T08:13:57;9.40;99.90
6843;DHT22;3460;52.028;8.916;2023-03-14T08:16:24;9.60;99.90
6843;DHT22;3460;52.028;8.916;2023-03-14T08:18:51;9.90;99.90
6843;DHT22;3460;52.028;8.916;2023-03-14T08:21:18;10.10;99.90
6843;DHT22;3460;52.028;8.916;2023-03-14T08:23:45;10.30;99.90
6843;DHT22;3460;52.028;8.916;2023-03-14T08:26:13;10.40;99.90
6843;DHT22;3460;52.028;8.916;2023-03-14T08:28:40;10.50;99.90
6843;DHT22;3460;52.028;8.916;2023-03-14T08:31:07;10.50;99.90
6843;DHT22;3460;52.028;8.916;2023-03-14T08:33:34;10.50;99.90
6843;DHT22;3460;52.028;8.916;2023-03-14T08:36:01;10.40;99.90
6843;DHT22;3460;52.028;8.916;2023-03-14T08:38:28;10.50;99.90
6843;DHT22;3460;52.028;8.916;2023-03-14T08:40:56;10.60;99.90
6843;DHT22;3460;52.028;8.916;2023-03-14T08:43:25;10.70;99.90
6843;DHT22;3460;52.028;8.916;2023-03-14T08:45:52;10.60;99.90
6843;DHT22;3460;52.028;8.916;2023-03-14T08:48:19;10.70;99.90
6843;DHT22;3460;52.028;8.916;2023-03-14T08:50:46;10.60;99.90
6843;DHT22;3460;52.028;8.916;2023-03-14T08:53:13;10.60;99.90
6843;DHT22;3460;52.028;8.916;2023-03-14T08:55:40;10.60;99.90
6843;DHT22;3460;52.028;8.916;2023-03-14T08:58:07;10.60;99.90
6843;DHT22;3460;52.028;8.916;2023-03-14T09:00:35;10.60;99.90
6843;DHT22;3460;52.028;8.916;2023-03-14T09:03:02;10.60;99.90
6843;DHT22;3460;52.028;8.916;2023-03-14T09:05:32;10.50;99.90
6843;DHT22;3460;52.028;8.916;2023-03-14T09:07:59;10.60;99.90
6843;DHT22;3460;52.028;8.916;2023-03-14T09:10:26;10.50;99.90
6843;DHT22;3460;52.028;8.916;2023-03-14T09:12:52;10.50;99.90
6843;DHT22;3460;52.028;8.916;2023-03-14T09:15:19;10.50;99.90
6843;DHT22;3460;52.028;8.916;2023-03-14T09:17:48;10.70;99.90
6843;DHT22;3460;52.028;8.916;2023-03-14T09:20:15;10.80;99.90
6843;DHT22;3460;52.028;8.916;2023-03-14T09:22:42;10.90;99.90
6843;DHT22;3460;52.028;8.916;2023-03-14T09:25:09;10.90;99.90
6843;DHT22;3460;52.028;8.916;2023-03-14T09:27:36;11.00;99.90
6843;DHT22;3460;52.028;8.916;2023-03-14T09:30:04;10.90;99.90
6843;DHT22;3460;52.028;8.916;2023-03-14T09:32:31;10.90;99.90
6843;DHT22;3460;52.028;8.916;2023-03-14T09:35:00;10.90;99.90
6843;DHT22;3460;52.028;8.916;2023-03-14T09:37:27;10.80;99.90
6843;DHT22;3460;52.028;8.916;2023-03-14T09:39:53;10.70;99.90
6843;DHT22;3460;52.028;8.916;2023-03-14T09:42:24;10.70;99.90
6843;DHT22;3460;52.028;8.916;2023-03-14T09:44:56;10.70;99.90
6843;DHT22;3460;52.028;8.916;2023-03-14T09:47:24;10.90;99.90
6843;DHT22;3460;52.028;8.916;2023-03-14T09:49:51;11.00;99.90
6843;DHT22;3460;52.028;8.916;2023-03-14T09:52:23;11.00;99.90
6843;DHT22;3460;52.028;8.916;2023-03-14T09:54:52;11.10;99.90
6843;DHT22;3460;52.028;8.916;2023-03-14T09:57:23;11.20;99.90
6843;DHT22;3460;52.028;8.916;2023-03-14T09:59:52;11.10;99.90
6843;DHT22;3460;52.028;8.916;2023-03-14T10:02:22;11.20;99.90
6843;DHT22;3460;52.028;8.916;2023-03-14T10:04:51;11.20;99.90
6843;DHT22;3460;52.028;8.916;2023-03-14T10:07:31;11.30;99.90
6843;DHT22;3460;52.028;8.916;2023-03-14T10:09:59;11.30;99.90
6843;DHT22;3460;52.028;8.916;2023-03-14T10:12:34;11.30;99.90
6843;DHT22;3460;52.028;8.916;2023-03-14T10:15:04;11.30;99.90
6843;DHT22;3460;52.028;8.916;2023-03-14T10:17:39;11.40;99.90
6843;DHT22;3460;52.028;8.916;2023-03-14T10:20:14;11.50;99.90
6843;DHT22;3460;52.028;8.916;2023-03-14T10:22:55;11.50;99.90
6843;DHT22;3460;52.028;8.916;2023-03-14T10:25:26;11.60;99.90
6843;DHT22;3460;52.028;8.916;2023-03-14T10:27:53;11.50;99.90
6843;DHT22;3460;52.028;8.916;2023-03-14T10:30:33;11.40;99.90
6843;DHT22;3460;52.028;8.916;2023-03-14T10:33:08;11.50;99.90
6843;DHT22;3460;52.028;8.916;2023-03-14T10:35:36;11.40;99.90
6843;DHT22;3460;52.028;8.916;2023-03-14T10:38:04;11.50;99.90
6843;DHT22;3460;52.028;8.916;2023-03-14T10:40:32;11.40;99.90
6843;DHT22;3460;52.028;8.916;2023-03-14T10:43:01;11.40;99.90
6843;DHT22;3460;52.028;8.916;2023-03-14T10:45:35;11.30;99.90
6843;DHT22;3460;52.028;8.916;2023-03-14T10:48:17;11.20;99.90
6843;DHT22;3460;52.028;8.916;2023-03-14T10:50:48;11.00;99.90
6843;DHT22;3460;52.028;8.916;2023-03-14T10:53:17;10.90;99.90
6843;DHT22;3460;52.028;8.916;2023-03-14T10:55:45;10.80;99.90
6843;DHT22;3460;52.028;8.916;2023-03-14T10:58:23;10.60;99.90
6843;DHT22;3460;52.028;8.916;2023-03-14T11:01:04;10.50;99.90
6843;DHT22;3460;52.028;8.916;2023-03-14T11:03:35;10.30;99.90
6843;DHT22;3460;52.028;8.916;2023-03-14T11:06:08;10.10;99.90
6843;DHT22;3460;52.028;8.916;2023-03-14T11:08:44;9.60;99.90
6843;DHT22;3460;52.028;8.916;2023-03-14T11:11:18;9.20;99.90
6843;DHT22;3460;52.028;8.916;2023-03-14T11:13:54;9.00;99.90
6843;DHT22;3460;52.028;8.916;2023-03-14T11:16:27;8.70;99.90
6843;DHT22;3460;52.028;8.916;2023-03-14T11:21:57;7.90;99.90
6843;DHT22;3460;52.028;8.916;2023-03-14T11:24:41;7.70;99.90
6843;DHT22;3460;52.028;8.916;2023-03-14T11:27:17;7.60;99.90
6843;DHT22;3460;52.028;8.916;2023-03-14T11:29:51;7.50;99.90
6843;DHT22;3460;52.028;8.916;2023-03-14T11:32:28;7.20;99.90
6843;DHT22;3460;52.028;8.916;2023-03-14T11:34:58;6.90;99.90
6843;DHT22;3460;52.028;8.916;2023-03-14T11:37:31;6.80;99.90
6843;DHT22;3460;52.028;8.916;2023-03-14T11:40:05;6.70;99.90
6843;DHT22;3460;52.028;8.916;2023-03-14T11:42:35;6.50;99.90
6843;DHT22;3460;52.028;8.916;2023-03-14T11:45:03;6.40;99.90
6843;DHT22;3460;52.028;8.916;2023-03-14T11:47:34;6.10;99.90
6843;DHT22;3460;52.028;8.916;2023-03-14T11:50:13;5.90;99.90
6843;DHT22;3460;52.028;8.916;2023-03-14T11:52:47;5.70;99.90
6843;DHT22;3460;52.028;8.916;2023-03-14T11:55:21;5.60;99.90
6843;DHT22;3460;52.028;8.916;2023-03-14T11:57:51;5.50;99.90
6843;DHT22;3460;52.028;8.916;2023-03-14T12:00:21;5.30;99.90
6843;DHT22;3460;52.028;8.916;2023-03-14T12:02:51;5.30;99.90
6843;DHT22;3460;52.028;8.916;2023-03-14T12:05:37;5.10;99.90
6843;DHT22;3460;52.028;8.916;2023-03-14T12:11:05;4.90;99.90
6843;DHT22;3460;52.028;8.916;2023-03-14T12:13:37;4.90;99.90
6843;DHT22;3460;52.028;8.916;2023-03-14T12:16:06;4.90;99.90
6843;DHT22;3460;52.028;8.916;2023-03-14T12:18:35;4.80;99.90
6843;DHT22;3460;52.028;8.916;2023-03-14T12:21:06;4.70;99.90
6843;DHT22;3460;52.028;8.916;2023-03-14T12:23:41;4.70;99.90
6843;DHT22;3460;52.028;8.916;2023-03-14T12:26:16;4.80;99.90
6843;DHT22;3460;52.028;8.916;2023-03-14T12:28:44;4.90;99.90
6843;DHT22;3460;52.028;8.916;2023-03-14T12:31:36;4.80;99.90
6843;DHT22;3460;52.028;8.916;2023-03-14T12:34:10;4.80;99.90
6843;DHT22;3460;52.028;8.916;2023-03-14T12:37:16;4.90;99.90
6843;DHT22;3460;52.028;8.916;2023-03-14T12:39:50;4.90;99.90
6843;DHT22;3460;52.028;8.916;2023-03-14T12:42:37;5.00;99.90
6843;DHT22;3460;52.028;8.916;2023-03-14T12:45:22;5.00;99.90
6843;DHT22;3460;52.028;8.916;2023-03-14T12:48:09;4.90;99.90
6843;DHT22;3460;52.028;8.916;2023-03-14T12:50:53;5.00;99.90
6843;DHT22;3460;52.028;8.916;2023-03-14T12:53:49;5.20;99.90
6843;DHT22;3460;52.028;8.916;2023-03-14T12:56:45;5.20;99.90
6843;DHT22;3460;52.028;8.916;2023-03-14T12:59:30;5.30;99.90
6843;DHT22;3460;52.028;8.916;2023-03-14T13:02:00;5.20;99.90
6843;DHT22;3460;52.028;8.916;2023-03-14T13:04:31;5.10;99.90
6843;DHT22;3460;52.028;8.916;2023-03-14T13:07:00;5.10;99.90
6843;DHT22;3460;52.028;8.916;2023-03-14T13:10:00;5.10;99.90
6843;DHT22;3460;52.028;8.916;2023-03-14T13:12:29;5.20;99.90
6843;DHT22;3460;52.028;8.916;2023-03-14T13:15:11;5.30;99.90
6843;DHT22;3460;52.028;8.916;2023-03-14T13:17:40;5.50;99.90
6843;DHT22;3460;52.028;8.916;2023-03-14T13:20:12;5.40;99.90
6843;DHT22;3460;52.028;8.916;2023-03-14T13:22:46;5.40;99.90
6843;DHT22;3460;52.028;8.916;2023-03-14T13:25:13;5.50;99.90
6843;DHT22;3460;52.028;8.916;2023-03-14T13:27:42;5.40;99.90
6843;DHT22;3460;52.028;8.916;2023-03-14T13:30:20;5.40;99.90
6843;DHT22;3460;52.028;8.916;2023-03-14T13:32:48;5.40;99.90
6843;DHT22;3460;52.028;8.916;2023-03-14T13:35:18;5.50;99.90
6843;DHT22;3460;52.028;8.916;2023-03-14T13:37:46;5.40;99.90
6843;DHT22;3460;52.028;8.916;2023-03-14T13:40:23;5.40;99.90
6843;DHT22;3460;52.028;8.916;2023-03-14T13:43:00;5.40;99.90
6843;DHT22;3460;52.028;8.916;2023-03-14T13:45:29;5.30;99.90
6843;DHT22;3460;52.028;8.916;2023-03-14T13:47:56;5.20;99.90
6843;DHT22;3460;52.028;8.916;2023-03-14T13:50:23;5.20;99.90
6843;DHT22;3460;52.028;8.916;2023-03-14T13:52:55;5.30;99.90
6843;DHT22;3460;52.028;8.916;2023-03-14T13:55:23;5.40;99.90
6843;DHT22;3460;52.028;8.916;2023-03-14T13:57:51;5.60;99.90
6843;DHT22;3460;52.028;8.916;2023-03-14T14:00:22;5.70;99.90
6843;DHT22;3460;52.028;8.916;2023-03-14T14:02:53;5.70;99.90
6843;DHT22;3460;52.028;8.916;2023-03-14T14:05:21;5.80;99.90
6843;DHT22;3460;52.028;8.916;2023-03-14T14:07:49;5.80;99.90
6843;DHT22;3460;52.028;8.916;2023-03-14T14:10:16;6.00;99.90
6843;DHT22;3460;52.028;8.916;2023-03-14T14:12:47;6.00;99.90
6843;DHT22;3460;52.028;8.916;2023-03-14T14:15:20;6.10;99.90
6843;DHT22;3460;52.028;8.916;2023-03-14T14:17:50;6.00;99.90
6843;DHT22;3460;52.028;8.916;2023-03-14T14:20:25;6.10;99.90
6843;DHT22;3460;52.028;8.916;2023-03-14T14:22:57;6.10;99.90
6843;DHT22;3460;52.028;8.916;2023-03-14T14:25:25;6.10;99.90
6843;DHT22;3460;52.028;8.916;2023-03-14T14:27:52;6.00;99.90
6843;DHT22;3460;52.028;8.916;2023-03-14T14:30:31;6.10;99.90
6843;DHT22;3460;52.028;8.916;2023-03-14T14:33:19;6.10;99.90
6843;DHT22;3460;52.028;8.916;2023-03-14T14:35:57;6.10;99.90
6843;DHT22;3460;52.028;8.916;2023-03-14T14:38:25;6.20;99.90
6843;DHT22;3460;52.028;8.916;2023-03-14T14:40:54;6.20;99.90
6843;DHT22;3460;52.028;8.916;2023-03-14T14:43:24;6.00;99.90
6843;DHT22;3460;52.028;8.916;2023-03-14T14:45:53;6.00;99.90
6843;DHT22;3460;52.028;8.916;2023-03-14T14:48:23;5.90;99.90
6843;DHT22;3460;52.028;8.916;2023-03-14T14:50:57;5.90;99.90
6843;DHT22;3460;52.028;8.916;2023-03-14T14:53:28;5.80;99.90
6843;DHT22;3460;52.028;8.916;2023-03-14T14:55:57;5.70;99.90
6843;DHT22;3460;52.028;8.916;2023-03-14T14:58:26;5.70;99.90
6843;DHT22;3460;52.028;8.916;2023-03-14T15:00:57;5.80;99.90
6843;DHT22;3460;52.028;8.916;2023-03-14T15:03:28;5.80;99.90
6843;DHT22;3460;52.028;8.916;2023-03-14T15:05:57;5.70;99.90
6843;DHT22;3460;52.028;8.916;2023-03-14T15:08:25;5.70;99.90
6843;DHT22;3460;52.028;8.916;2023-03-14T15:10:53;5.80;99.90
6843;DHT22;3460;52.028;8.916;2023-03-14T15:13:20;5.70;99.90
6843;DHT22;3460;52.028;8.916;2023-03-14T15:15:48;5.70;99.90
6843;DHT22;3460;52.028;8.916;2023-03-14T15:18:22;5.80;99.90
6843;DHT22;3460;52.028;8.916;2023-03-14T15:20:49;5.70;99.90
6843;DHT22;3460;52.028;8.916;2023-03-14T15:23:19;5.60;99.90
6843;DHT22;3460;52.028;8.916;2023-03-14T15:25:45;5.50;99.90
6843;DHT22;3460;52.028;8.916;2023-03-14T15:28:20;5.50;99.90
6843;DHT22;3460;52.028;8.916;2023-03-14T15:30:49;5.40;95.50
6843;DHT22;3460;52.028;8.916;2023-03-14T15:33:16;5.40;99.90
6843;DHT22;3460;52.028;8.916;2023-03-14T15:35:43;5.30;99.90
6843;DHT22;3460;52.028;8.916;2023-03-14T15:38:11;5.20;99.90
6843;DHT22;3460;52.028;8.916;2023-03-14T15:40:40;5.30;99.90
6843;DHT22;3460;52.028;8.916;2023-03-14T15:43:08;5.50;99.90
6843;DHT22;3460;52.028;8.916;2023-03-14T15:45:35;5.30;99.90
6843;DHT22;3460;52.028;8.916;2023-03-14T15:48:04;5.30;99.90
6843;DHT22;3460;52.028;8.916;2023-03-14T15:50:31;5.20;99.90
6843;DHT22;3460;52.028;8.916;2023-03-14T15:52:58;5.30;99.90
6843;DHT22;3460;52.028;8.916;2023-03-14T15:55:24;5.30;99.90
6843;DHT22;3460;52.028;8.916;2023-03-14T15:57:53;5.50;99.90
6843;DHT22;3460;52.028;8.916;2023-03-14T16:00:20;5.60;99.90
6843;DHT22;3460;52.028;8.916;2023-03-14T16:02:48;5.60;99.90
6843;DHT22;3460;52.028;8.916;2023-03-14T16:05:16;5.60;99.90
6843;DHT22;3460;52.028;8.916;2023-03-14T16:07:44;5.50;99.90
6843;DHT22;3460;52.028;8.916;2023-03-14T16:10:12;5.50;99.90
6843;DHT22;3460;52.028;8.916;2023-03-14T16:12:40;5.60;99.90
6843;DHT22;3460;52.028;8.916;2023-03-14T16:15:09;5.60;99.90
6843;DHT22;3460;52.028;8.916;2023-03-14T16:17:36;5.60;99.90
6843;DHT22;3460;52.028;8.916;2023-03-14T16:20:06;5.60;99.90
6843;DHT22;3460;52.028;8.916;2023-03-14T16:22:33;5.60;99.90
6843;DHT22;3460;52.028;8.916;2023-03-14T16:25:01;5.60;99.90
6843;DHT22;3460;52.028;8.916;2023-03-14T16:27:29;5.60;99.90
6843;DHT22;3460;52.028;8.916;2023-03-14T16:29:56;5.50;99.90
6843;DHT22;3460;52.028;8.916;2023-03-14T16:32:25;5.50;99.90